Time;durP1;ratioP1;P1;durP2;ratioP2;P2;SDS_P1;SDS_P2;PMS_P1;PMS_P2;Temp;Humidity;BMP_temperature;BMP_pressure;BME280_temperature;BME280_humidity;BME280_pressure;Samples;Min_cycle;Max_cycle;Signal;HPM_P1;HPM_P2
2022/09/29 00:00:21;;;;;;;1.70;1.20;;;;;;;10.91;87.02;95217.29;108141;1270;29547;-82
2022/09/29 00:03:12;;;;;;;2.00;1.50;;;;;;;10.88;87.44;95218.42;108172;1270;24196;-82
2022/09/29 00:05:49;;;;;;;3.40;1.50;;;;;;;10.80;87.71;95222.02;108168;1270;22550;-82
2022/09/29 00:08:21;;;;;;;2.30;1.40;;;;;;;10.80;87.99;95226.16;108203;1270;22587;-82
2022/09/29 00:10:53;;;;;;;1.60;1.40;;;;;;;10.84;87.99;95227.43;108165;1270;22589;-82
2022/09/29 00:13:24;;;;;;;2.70;1.70;;;;;;;10.88;88.17;95223.75;108268;1270;24230;-82
2022/09/29 00:16:00;;;;;;;2.20;1.40;;;;;;;10.87;88.34;95218.70;108237;1270;23025;-82
2022/09/29 00:18:34;;;;;;;2.40;1.50;;;;;;;10.88;88.65;95220.17;108117;1270;25336;-82
2022/09/29 00:21:08;;;;;;;1.70;1.30;;;;;;;10.86;88.70;95217.90;108227;1270;24266;-82
2022/09/29 00:23:42;;;;;;;1.70;1.30;;;;;;;10.80;88.96;95210.55;108246;1270;22770;-82
2022/09/29 00:26:16;;;;;;;2.00;1.30;;;;;;;10.76;89.15;95213.52;108169;1270;22577;-82
2022/09/29 00:28:52;;;;;;;1.10;0.70;;;;;;;10.72;89.20;95212.13;108089;1270;29092;-82
2022/09/29 00:31:24;;;;;;;0.40;0.40;;;;;;;10.61;88.99;95219.55;108192;1270;25969;-82
2022/09/29 00:33:58;;;;;;;0.60;0.50;;;;;;;10.56;89.21;95220.83;108127;1270;22544;-82
2022/09/29 00:36:30;;;;;;;1.00;0.90;;;;;;;10.49;89.60;95221.05;108170;1270;23487;-82
2022/09/29 00:39:01;;;;;;;1.30;0.90;;;;;;;10.39;90.02;95219.54;108248;1268;26059;-82
2022/09/29 00:41:34;;;;;;;0.90;0.70;;;;;;;10.25;90.18;95227.84;108351;1268;22597;-82
2022/09/29 00:44:23;;;;;;;1.20;0.80;;;;;;;10.14;90.38;95233.12;108373;1267;22547;-82
2022/09/29 00:47:01;;;;;;;1.10;0.90;;;;;;;10.03;90.91;95233.04;108377;1267;24065;-82
2022/09/29 00:49:39;;;;;;;1.40;0.90;;;;;;;9.93;90.63;95234.44;108283;1267;28263;-82
2022/09/29 00:52:17;;;;;;;1.30;1.00;;;;;;;9.82;90.39;95234.14;108314;1268;24459;-82
2022/09/29 00:54:53;;;;;;;1.20;1.00;;;;;;;9.76;90.21;95228.63;108325;1268;22601;-82
2022/09/29 00:57:29;;;;;;;3.30;1.20;;;;;;;9.68;90.37;95228.12;108366;1268;22558;-83
2022/09/29 01:00:06;;;;;;;1.70;1.00;;;;;;;9.58;90.64;95229.41;108321;1267;27027;-83
2022/09/29 01:02:43;;;;;;;1.40;1.30;;;;;;;9.47;90.95;95234.45;108345;1267;22552;-82
2022/09/29 01:05:19;;;;;;;1.90;1.30;;;;;;;9.41;91.44;95234.50;108383;1268;22575;-82
2022/09/29 01:07:51;;;;;;;2.20;1.40;;;;;;;9.35;91.60;95240.11;108390;1268;24218;-82
2022/09/29 01:10:23;;;;;;;2.50;1.50;;;;;;;9.35;91.96;95249.58;108266;1268;39199;-82
2022/09/29 01:12:55;;;;;;;2.20;1.40;;;;;;;9.34;92.33;95257.38;108358;1267;24369;-82
2022/09/29 01:15:28;;;;;;;3.00;1.70;;;;;;;9.33;92.68;95259.40;108362;1268;22813;-82
2022/09/29 01:18:00;;;;;;;4.40;1.90;;;;;;;9.35;92.86;95266.02;108363;1268;23311;-83
2022/09/29 01:20:36;;;;;;;3.30;1.90;;;;;;;9.39;92.87;95272.73;108277;1268;28870;-83
2022/09/29 01:23:38;;;;;;;2.50;1.50;;;;;;;9.45;92.75;95274.99;108278;1270;22529;-82
2022/09/29 01:26:38;;;;;;;3.30;1.50;;;;;;;9.49;92.46;95277.56;108329;1270;22608;-82
2022/09/29 01:29:38;;;;;;;2.00;1.50;;;;;;;9.50;92.15;95276.95;108124;1270;28730;-82
2022/09/29 01:32:19;;;;;;;1.80;1.40;;;;;;;9.52;92.41;95277.97;108270;1270;24273;-83
2022/09/29 01:34:58;;;;;;;2.40;1.30;;;;;;;9.56;92.23;95274.52;108286;1270;24276;-82
2022/09/29 01:37:41;;;;;;;2.50;1.40;;;;;;;9.58;92.12;95276.36;108275;1270;22822;-83
2022/09/29 01:40:15;;;;;;;3.00;1.80;;;;;;;9.60;92.36;95280.37;108216;1270;24322;-83
2022/09/29 01:42:54;;;;;;;3.50;1.80;;;;;;;9.62;92.49;95288.46;108143;1270;190836;-82
2022/09/29 01:45:32;;;;;;;2.20;1.60;;;;;;;9.66;92.51;95299.31;108192;1270;22567;-82
2022/09/29 01:48:07;;;;;;;3.10;1.50;;;;;;;9.65;92.42;95304.56;108272;1270;24311;-83
2022/09/29 01:50:43;;;;;;;3.80;1.60;;;;;;;9.58;91.89;95304.08;108155;1270;33739;-82
2022/09/29 01:53:18;;;;;;;2.50;1.40;;;;;;;9.57;91.99;95309.81;108222;1270;22544;-82
2022/09/29 01:55:56;;;;;;;1.60;1.50;;;;;;;9.57;92.19;95306.59;108220;1270;25306;-83
2022/09/29 01:58:33;;;;;;;4.00;1.60;;;;;;;9.55;92.43;95310.48;106464;1270;2327607;-81
2022/09/29 02:01:10;;;;;;;1.80;1.40;;;;;;;9.55;92.49;95311.91;108373;1267;22537;-82
2022/09/29 02:03:49;;;;;;;3.90;1.60;;;;;;;9.53;92.48;95313.33;108389;1267;23230;-82
2022/09/29 02:06:25;;;;;;;3.20;1.80;;;;;;;9.50;92.47;95313.29;108375;1267;23902;-82
2022/09/29 02:08:58;;;;;;;2.50;1.60;;;;;;;9.52;92.47;95309.51;108279;1268;29203;-82
2022/09/29 02:11:33;;;;;;;1.10;1.00;;;;;;;9.54;92.30;95309.14;108381;1267;24208;-82
2022/09/29 02:14:14;;;;;;;2.60;1.20;;;;;;;9.49;91.75;95306.88;108307;1268;22553;-83
2022/09/29 02:16:52;;;;;;;1.90;1.20;;;;;;;9.47;91.54;95305.14;108351;1268;22607;-83
2022/09/29 02:19:27;;;;;;;3.60;1.30;;;;;;;9.49;91.42;95306.88;108296;1268;34479;-82
2022/09/29 02:22:00;;;;;;;1.60;1.30;;;;;;;9.52;91.41;95307.79;108338;1268;22549;-82
2022/09/29 02:24:32;;;;;;;1.80;1.40;;;;;;;9.52;91.46;95315.04;108363;1268;22535;-82
2022/09/29 02:27:04;;;;;;;2.90;1.50;;;;;;;9.46;91.46;95324.58;108362;1267;22552;-82
2022/09/29 02:29:38;;;;;;;3.70;1.80;;;;;;;9.39;91.80;95330.34;108315;1267;28545;-82
2022/09/29 02:32:11;;;;;;;3.10;1.40;;;;;;;9.29;91.91;95334.57;108354;1267;23291;-82
2022/09/29 02:34:46;;;;;;;2.10;1.70;;;;;;;9.19;92.17;95333.79;108330;1268;22670;-82
2022/09/29 02:37:32;;;;;;;2.20;1.50;;;;;;;9.10;92.36;95330.66;108358;1267;22766;-82
2022/09/29 02:40:16;;;;;;;2.50;1.60;;;;;;;9.01;92.45;95334.14;108264;1270;24053;-82
2022/09/29 02:43:06;;;;;;;2.10;1.20;;;;;;;8.90;92.20;95330.10;108382;1267;25109;-82
2022/09/29 02:45:50;;;;;;;1.90;1.60;;;;;;;8.82;91.89;95333.97;108371;1267;25248;-82
2022/09/29 02:48:43;;;;;;;2.40;1.70;;;;;;;8.73;91.95;95335.29;108338;1267;22631;-83
2022/09/29 02:51:22;;;;;;;3.40;1.50;;;;;;;8.59;92.03;95329.94;108324;1268;22538;-82
2022/09/29 02:54:07;;;;;;;2.00;1.60;;;;;;;8.51;92.27;95328.46;108382;1268;22557;-83
2022/09/29 02:56:47;;;;;;;3.70;2.10;;;;;;;8.43;92.72;95334.06;108386;1267;24397;-82
2022/09/29 02:59:23;;;;;;;3.10;2.10;;;;;;;8.37;93.03;95333.83;108319;1267;24245;-82
2022/09/29 03:01:57;;;;;;;2.80;2.10;;;;;;;8.32;93.31;95338.06;108372;1267;22558;-82
2022/09/29 03:04:28;;;;;;;2.80;1.70;;;;;;;8.30;93.53;95331.91;108345;1268;23414;-82
2022/09/29 03:07:00;;;;;;;3.80;2.20;;;;;;;8.29;93.49;95328.02;108389;1268;22678;-82
2022/09/29 03:09:32;;;;;;;4.20;2.40;;;;;;;8.30;93.48;95327.10;108304;1267;31173;-82
2022/09/29 03:12:03;;;;;;;3.40;2.10;;;;;;;8.32;93.71;95329.46;108362;1267;22524;-82
2022/09/29 03:14:34;;;;;;;2.90;2.40;;;;;;;8.30;93.80;95329.75;108377;1268;24217;-82
2022/09/29 03:17:06;;;;;;;3.40;2.30;;;;;;;8.28;93.80;95330.84;108400;1267;22654;-82
2022/09/29 03:19:37;;;;;;;2.90;2.00;;;;;;;8.27;93.86;95333.92;108289;1267;29947;-82
2022/09/29 03:22:09;;;;;;;4.20;2.00;;;;;;;8.30;93.91;95334.50;108383;1268;23847;-82
2022/09/29 03:24:40;;;;;;;4.20;2.50;;;;;;;8.36;93.73;95335.59;108371;1268;25283;-82
2022/09/29 03:27:12;;;;;;;4.20;2.90;;;;;;;8.40;93.94;95333.02;108368;1267;22577;-82
2022/09/29 03:29:43;;;;;;;4.40;2.80;;;;;;;8.45;94.12;95323.73;108319;1267;29870;-82
2022/09/29 03:32:15;;;;;;;3.80;2.40;;;;;;;8.51;94.11;95322.07;108378;1268;22567;-82
2022/09/29 03:34:48;;;;;;;3.90;2.70;;;;;;;8.59;93.94;95321.64;108360;1267;22522;-82
2022/09/29 03:37:19;;;;;;;3.90;1.80;;;;;;;8.61;93.68;95319.65;108366;1268;22529;-82
2022/09/29 03:39:51;;;;;;;2.40;1.90;;;;;;;8.55;93.14;95312.90;108295;1267;30240;-82
2022/09/29 03:42:23;;;;;;;2.70;1.50;;;;;;;8.48;93.00;95315.48;108380;1267;22556;-82
2022/09/29 03:44:56;;;;;;;3.10;2.30;;;;;;;8.43;93.21;95314.73;108391;1267;24316;-82
2022/09/29 03:47:28;;;;;;;4.80;2.40;;;;;;;8.39;93.28;95317.72;108364;1267;22792;-82
2022/09/29 03:49:59;;;;;;;3.10;2.10;;;;;;;8.38;93.56;95317.44;108308;1267;26692;-82
2022/09/29 03:52:31;;;;;;;3.10;1.80;;;;;;;8.35;93.73;95325.20;108374;1268;22709;-82
2022/09/29 03:55:02;;;;;;;3.90;2.50;;;;;;;8.39;93.84;95326.70;108301;1268;22985;-82
2022/09/29 03:57:33;;;;;;;4.00;2.40;;;;;;;8.47;94.06;95324.39;108330;1265;25414;-82
2022/09/29 04:00:05;;;;;;;4.00;3.00;;;;;;;8.49;94.03;95317.79;108304;1267;32372;-82
2022/09/29 04:02:37;;;;;;;4.60;2.70;;;;;;;8.43;94.22;95320.02;108357;1267;24226;-82
2022/09/29 04:05:09;;;;;;;4.40;2.90;;;;;;;8.39;94.21;95316.88;108421;1267;22683;-82
2022/09/29 04:07:40;;;;;;;4.90;2.60;;;;;;;8.42;94.19;95320.13;108412;1267;22531;-82
2022/09/29 04:10:12;;;;;;;3.90;3.30;;;;;;;8.47;94.21;95322.75;108294;1267;33594;-82
2022/09/29 04:12:43;;;;;;;3.80;2.30;;;;;;;8.50;94.18;95324.36;108357;1267;22637;-82
2022/09/29 04:15:14;;;;;;;3.80;2.60;;;;;;;8.53;94.17;95323.08;108392;1267;22564;-82
2022/09/29 04:17:46;;;;;;;4.00;3.60;;;;;;;8.52;94.16;95323.22;108360;1267;22634;-82
2022/09/29 04:20:17;;;;;;;4.10;3.70;;;;;;;8.52;94.38;95325.49;108306;1267;29927;-82
2022/09/29 04:22:49;;;;;;;7.00;4.70;;;;;;;8.52;94.30;95325.80;108397;1266;24223;-83
2022/09/29 04:25:20;;;;;;;4.20;3.20;;;;;;;8.53;94.36;95322.86;108331;1268;25251;-82
2022/09/29 04:27:52;;;;;;;3.40;1.80;;;;;;;8.53;94.31;95322.98;108372;1268;22558;-82
2022/09/29 04:30:23;;;;;;;2.30;1.80;;;;;;;8.51;94.47;95319.80;108303;1268;28027;-82
2022/09/29 04:32:54;;;;;;;2.70;2.00;;;;;;;8.54;94.58;95322.30;108336;1268;22557;-82
2022/09/29 04:35:26;;;;;;;2.90;1.80;;;;;;;8.53;94.43;95320.96;108272;1270;23221;-82
2022/09/29 04:37:58;;;;;;;2.40;2.00;;;;;;;8.57;94.74;95325.85;108340;1268;22571;-82
2022/09/29 04:40:31;;;;;;;2.90;2.20;;;;;;;8.65;94.93;95324.09;108233;1270;29641;-82
2022/09/29 04:43:03;;;;;;;3.50;2.10;;;;;;;8.70;94.91;95324.41;108277;1270;24227;-82
2022/09/29 04:45:35;;;;;;;2.50;2.10;;;;;;;8.66;94.63;95332.95;108180;1270;22536;-82
2022/09/29 04:48:06;;;;;;;4.90;2.60;;;;;;;8.59;94.46;95335.58;108276;1270;22532;-82
2022/09/29 04:50:37;;;;;;;2.40;2.20;;;;;;;8.56;94.54;95336.48;108263;1268;32763;-82
2022/09/29 04:53:11;;;;;;;2.20;2.00;;;;;;;8.53;94.70;95337.34;108290;1268;22549;-82
2022/09/29 04:55:43;;;;;;;3.20;2.40;;;;;;;8.52;94.82;95336.16;108344;1268;22536;-82
2022/09/29 04:58:15;;;;;;;3.10;2.40;;;;;;;8.51;94.95;95341.61;108366;1268;22569;-82
2022/09/29 05:00:46;;;;;;;4.80;2.40;;;;;;;8.49;94.97;95342.19;108245;1270;33127;-82
2022/09/29 05:03:17;;;;;;;2.90;2.10;;;;;;;8.52;95.15;95338.85;108222;1270;22552;-82
2022/09/29 05:05:49;;;;;;;3.90;2.40;;;;;;;8.59;95.30;95341.44;108314;1269;22889;-82
2022/09/29 05:08:20;;;;;;;3.10;2.20;;;;;;;8.68;95.46;95340.41;108300;1270;22531;-82
2022/09/29 05:10:51;;;;;;;2.20;1.90;;;;;;;8.77;95.32;95338.92;108327;1270;22561;-82
2022/09/29 05:13:23;;;;;;;3.30;1.90;;;;;;;8.85;95.29;95340.38;108308;1270;22599;-82
2022/09/29 05:15:58;;;;;;;3.10;2.60;;;;;;;8.91;95.30;95339.54;108268;1270;22572;-82
2022/09/29 05:18:31;;;;;;;4.00;2.80;;;;;;;8.95;95.22;95341.30;108246;1270;32133;-82
2022/09/29 05:21:06;;;;;;;2.90;2.40;;;;;;;9.00;95.17;95346.12;108321;1270;24270;-82
2022/09/29 05:23:38;;;;;;;4.00;2.70;;;;;;;9.05;95.19;95350.71;108306;1269;24034;-82
2022/09/29 05:26:10;;;;;;;3.00;2.60;;;;;;;9.08;95.05;95352.61;108222;1270;25381;-82
2022/09/29 05:28:46;;;;;;;4.70;2.40;;;;;;;9.08;95.02;95351.42;108230;1268;30008;-81
2022/09/29 05:31:18;;;;;;;2.80;2.40;;;;;;;9.12;95.12;95355.45;108404;1268;22538;-82
2022/09/29 05:33:50;;;;;;;5.00;2.50;;;;;;;9.16;95.13;95353.73;108363;1268;22581;-82
2022/09/29 05:36:22;;;;;;;3.50;2.20;;;;;;;9.21;95.19;95355.17;108388;1268;24238;-82
2022/09/29 05:38:55;;;;;;;3.70;2.40;;;;;;;9.23;95.03;95359.81;108319;1267;24606;-82
2022/09/29 05:41:26;;;;;;;3.10;1.90;;;;;;;9.21;94.92;95359.65;108435;1268;22557;-82
2022/09/29 05:44:00;;;;;;;2.60;1.80;;;;;;;9.21;94.98;95362.14;108400;1267;22694;-82
2022/09/29 05:46:31;;;;;;;3.80;1.90;;;;;;;9.23;94.92;95366.11;108384;1268;25441;-82
2022/09/29 05:49:04;;;;;;;2.60;1.80;;;;;;;9.23;94.68;95365.91;108330;1267;33009;-81
2022/09/29 05:51:35;;;;;;;3.90;1.70;;;;;;;9.21;94.73;95364.00;108408;1267;22527;-82
2022/09/29 05:54:07;;;;;;;3.40;2.20;;;;;;;9.21;94.81;95361.08;108375;1268;24223;-82
2022/09/29 05:56:38;;;;;;;3.70;1.80;;;;;;;9.22;94.77;95360.90;108397;1267;22589;-82
2022/09/29 05:59:11;;;;;;;3.20;1.90;;;;;;;9.24;94.78;95360.16;108320;1267;32152;-82
2022/09/29 06:01:43;;;;;;;3.90;2.30;;;;;;;9.24;94.60;95362.59;108416;1268;22538;-82
2022/09/29 06:04:14;;;;;;;2.70;1.80;;;;;;;9.28;94.52;95362.45;108393;1267;22700;-82
2022/09/29 06:06:46;;;;;;;4.40;1.90;;;;;;;9.33;94.60;95359.34;108370;1268;22695;-82
2022/09/29 06:09:18;;;;;;;2.90;1.90;;;;;;;9.37;94.52;95362.41;108327;1267;29396;-81
2022/09/29 06:11:49;;;;;;;2.60;2.00;;;;;;;9.42;94.48;95367.14;108407;1267;24225;-81
2022/09/29 06:14:21;;;;;;;3.70;2.20;;;;;;;9.46;94.46;95370.39;108280;1270;22617;-82
2022/09/29 06:16:52;;;;;;;2.40;1.90;;;;;;;9.45;94.35;95368.05;108362;1267;24317;-82
2022/09/29 06:19:24;;;;;;;1.60;1.20;;;;;;;9.46;94.47;95368.39;108324;1267;35476;-82
2022/09/29 06:21:55;;;;;;;2.10;1.00;;;;;;;9.51;94.64;95363.16;108399;1267;22664;-82
2022/09/29 06:24:26;;;;;;;1.90;0.90;;;;;;;9.56;94.53;95360.89;108377;1267;22538;-82
2022/09/29 06:26:58;;;;;;;1.40;1.00;;;;;;;9.49;93.92;95364.80;108415;1267;24263;-82
2022/09/29 06:29:29;;;;;;;1.70;1.20;;;;;;;9.38;93.89;95369.20;108316;1267;38817;-82
2022/09/29 06:32:00;;;;;;;2.40;1.90;;;;;;;9.27;94.15;95371.04;108410;1267;22719;-82
2022/09/29 06:34:32;;;;;;;3.60;2.50;;;;;;;9.15;94.49;95367.19;108390;1267;22643;-81
2022/09/29 06:39:52;;;;;;;2.40;2.10;;;;;;;9.00;95.03;95357.23;108340;1267;25364;-82
2022/09/29 06:42:23;;;;;;;4.70;1.80;;;;;;;8.95;94.90;95365.98;108398;1267;22543;-82
2022/09/29 06:44:54;;;;;;;1.80;1.20;;;;;;;8.96;94.82;95367.30;108367;1267;24510;-82
2022/09/29 06:47:26;;;;;;;1.70;1.30;;;;;;;8.96;94.62;95369.67;108385;1265;22562;-82
2022/09/29 06:50:00;;;;;;;2.40;1.70;;;;;;;8.98;94.68;95377.83;108284;1267;38623;-82
2022/09/29 06:52:32;;;;;;;3.20;1.90;;;;;;;9.04;94.86;95377.25;108424;1267;23212;-82
2022/09/29 06:55:03;;;;;;;3.60;2.30;;;;;;;9.06;95.16;95374.39;108390;1267;24237;-82
2022/09/29 06:57:35;;;;;;;3.50;2.10;;;;;;;9.08;95.55;95373.44;108391;1267;22552;-82
2022/09/29 07:00:09;;;;;;;3.70;1.80;;;;;;;9.14;95.82;95373.98;108365;1267;31570;-82
2022/09/29 07:02:40;;;;;;;1.50;1.30;;;;;;;9.13;95.55;95373.64;108420;1267;23339;-82
2022/09/29 07:05:11;;;;;;;2.60;1.90;;;;;;;9.17;95.71;95378.02;108396;1267;22621;-82
2022/09/29 07:07:42;;;;;;;7.20;2.10;;;;;;;9.19;95.62;95379.48;108433;1267;22543;-82
2022/09/29 07:10:14;;;;;;;2.70;1.80;;;;;;;9.22;95.64;95377.39;108367;1267;23299;-82
2022/09/29 07:12:48;;;;;;;3.40;2.20;;;;;;;9.27;95.72;95386.31;108382;1267;22556;-82
2022/09/29 07:15:19;;;;;;;2.80;2.00;;;;;;;9.33;95.83;95389.27;108428;1267;22565;-82
2022/09/29 07:17:54;;;;;;;2.80;1.90;;;;;;;9.36;95.76;95393.14;108381;1267;22521;-82
2022/09/29 07:20:25;;;;;;;3.90;2.30;;;;;;;9.37;95.45;95396.27;108224;1268;30507;-82
2022/09/29 07:23:00;;;;;;;2.70;2.30;;;;;;;9.33;95.51;95396.83;108310;1267;22535;-82
2022/09/29 07:25:31;;;;;;;3.10;2.40;;;;;;;9.37;95.71;95401.17;108399;1267;22539;-82
2022/09/29 07:28:03;;;;;;;3.10;1.90;;;;;;;9.39;95.70;95401.38;108445;1267;22542;-82
2022/09/29 07:30:36;;;;;;;3.10;2.20;;;;;;;9.36;95.47;95407.12;108333;1267;34113;-82
2022/09/29 07:33:07;;;;;;;2.90;1.70;;;;;;;9.29;95.23;95409.45;108372;1267;24316;-82
2022/09/29 07:35:39;;;;;;;3.70;2.50;;;;;;;9.23;95.20;95413.77;108414;1267;24240;-82
2022/09/29 07:38:10;;;;;;;2.90;1.90;;;;;;;9.24;95.55;95410.63;108429;1267;23335;-82
2022/09/29 07:40:41;;;;;;;2.00;1.80;;;;;;;9.34;96.05;95408.92;108330;1267;32630;-82
2022/09/29 07:43:13;;;;;;;2.50;1.90;;;;;;;9.40;95.89;95408.76;108408;1267;22588;-82
2022/09/29 07:45:49;;;;;;;4.20;2.00;;;;;;;9.48;96.09;95412.05;108427;1267;22692;-82
2022/09/29 07:48:21;;;;;;;2.30;1.70;;;;;;;9.51;95.94;95418.25;108405;1267;22549;-82
2022/09/29 07:50:52;;;;;;;3.70;2.00;;;;;;;9.56;96.05;95418.78;108452;1267;22672;-82
2022/09/29 07:53:24;;;;;;;2.30;1.70;;;;;;;9.58;95.83;95423.73;108378;1267;22631;-82
2022/09/29 07:55:56;;;;;;;2.80;2.00;;;;;;;9.45;95.23;95425.39;108421;1267;22559;-82
2022/09/29 07:58:31;;;;;;;1.90;1.40;;;;;;;9.34;95.08;95435.79;108374;1267;30250;-81
2022/09/29 08:01:05;;;;;;;2.20;1.40;;;;;;;9.27;95.32;95439.33;108388;1267;22548;-82
2022/09/29 08:03:37;;;;;;;1.80;1.40;;;;;;;9.20;95.46;95441.61;108411;1267;22545;-81
2022/09/29 08:06:10;;;;;;;3.70;2.40;;;;;;;9.18;95.68;95447.66;108328;1268;22535;-82
2022/09/29 08:08:42;;;;;;;3.10;1.70;;;;;;;9.10;95.38;95447.89;108262;1268;44498;-81
2022/09/29 08:11:17;;;;;;;2.30;1.60;;;;;;;9.07;95.48;95450.55;108266;1270;24262;-81
2022/09/29 08:13:51;;;;;;;2.30;1.60;;;;;;;9.09;95.67;95456.74;108344;1268;22578;-82
2022/09/29 08:16:22;;;;;;;2.40;1.60;;;;;;;9.06;95.68;95457.96;108322;1268;22660;-82
2022/09/29 08:18:54;;;;;;;2.40;1.90;;;;;;;9.06;96.12;95455.32;108177;1270;27190;-81
2022/09/29 08:21:25;;;;;;;2.40;1.90;;;;;;;9.04;95.93;95451.95;108236;1269;25254;-82
2022/09/29 08:23:57;;;;;;;2.60;2.00;;;;;;;9.04;96.14;95453.84;108177;1270;24289;-81
2022/09/29 08:26:30;;;;;;;3.60;1.90;;;;;;;9.15;96.63;95453.33;108206;1270;23512;-82
2022/09/29 08:29:01;;;;;;;2.40;1.90;;;;;;;9.27;96.85;95447.15;108107;1268;37859;-81
2022/09/29 08:31:33;;;;;;;2.50;1.60;;;;;;;9.37;96.97;95448.48;108229;1270;22530;-82
2022/09/29 08:34:04;;;;;;;2.40;2.00;;;;;;;9.44;96.89;95444.63;108306;1269;22533;-82
2022/09/29 08:36:37;;;;;;;2.10;1.90;;;;;;;9.45;96.58;95449.15;108317;1268;25364;-82
2022/09/29 08:39:10;;;;;;;3.20;2.00;;;;;;;9.47;96.54;95451.63;108261;1268;30746;-82
2022/09/29 08:41:51;;;;;;;3.50;2.50;;;;;;;9.54;96.66;95456.45;108336;1269;22538;-82
2022/09/29 08:44:32;;;;;;;4.10;2.60;;;;;;;9.58;96.61;95453.26;108337;1268;22592;-82
2022/09/29 08:47:08;;;;;;;4.20;3.10;;;;;;;9.55;96.39;95458.65;108352;1268;22559;-82
2022/09/29 08:49:43;;;;;;;4.30;3.00;;;;;;;9.43;95.96;95459.08;108163;1270;30843;-81
2022/09/29 08:52:19;;;;;;;2.50;1.50;;;;;;;9.38;95.92;95459.77;108305;1268;22602;-82
2022/09/29 08:54:55;;;;;;;3.00;1.20;;;;;;;9.31;95.31;95462.94;108248;1270;22734;-82
2022/09/29 08:57:27;;;;;;;1.20;1.00;;;;;;;9.24;94.98;95466.94;108272;1270;25378;-82
2022/09/29 09:00:00;;;;;;;1.50;0.80;;;;;;;9.25;95.19;95467.02;108279;1269;26783;-82
2022/09/29 09:03:10;;;;;;;1.80;1.00;;;;;;;9.34;95.48;95465.47;108272;1269;24900;-82
2022/09/29 09:06:04;;;;;;;2.20;1.00;;;;;;;9.43;95.49;95465.16;108124;1270;22571;-82
2022/09/29 09:08:50;;;;;;;2.50;1.20;;;;;;;9.55;95.62;95469.66;108211;1270;24988;-82
2022/09/29 09:11:38;;;;;;;1.40;0.80;;;;;;;9.63;95.43;95472.29;108259;1270;22541;-82
2022/09/29 09:14:23;;;;;;;2.90;0.80;;;;;;;9.71;95.13;95466.02;108314;1268;24444;-82
2022/09/29 09:17:05;;;;;;;0.70;0.50;;;;;;;9.71;94.42;95468.98;108301;1269;23031;-82
2022/09/29 09:19:54;;;;;;;1.30;0.40;;;;;;;9.65;93.25;95468.70;108224;1270;25959;-82
2022/09/29 09:22:31;;;;;;;1.40;0.50;;;;;;;9.67;93.54;95467.15;108319;1270;22641;-82
2022/09/29 09:25:13;;;;;;;1.30;0.50;;;;;;;9.80;93.96;95469.14;108312;1269;22606;-82
2022/09/29 09:27:49;;;;;;;0.50;0.50;;;;;;;9.95;94.19;95470.74;108265;1270;22568;-82
2022/09/29 09:30:22;;;;;;;0.70;0.60;;;;;;;10.08;94.19;95467.65;108204;1270;23611;-82
2022/09/29 09:32:58;;;;;;;0.60;0.50;;;;;;;10.17;93.53;95471.33;108304;1269;25343;-82
2022/09/29 09:35:46;;;;;;;1.60;0.50;;;;;;;10.20;93.40;95470.26;108242;1270;22572;-82
2022/09/29 09:38:24;;;;;;;1.20;0.50;;;;;;;10.33;93.85;95472.00;108324;1269;22551;-82
2022/09/29 09:40:58;;;;;;;2.40;0.60;;;;;;;10.45;93.81;95471.21;108288;1270;22555;-82
2022/09/29 09:43:37;;;;;;;2.20;0.80;;;;;;;10.55;93.72;95476.26;108296;1270;22528;-82
2022/09/29 09:46:14;;;;;;;0.60;0.60;;;;;;;10.63;93.30;95475.88;108308;1269;24230;-82
2022/09/29 09:48:56;;;;;;;1.20;0.80;;;;;;;10.74;93.57;95465.58;108245;1268;24561;-82
2022/09/29 09:51:45;;;;;;;1.50;0.80;;;;;;;10.88;93.76;95466.43;108314;1265;24234;-82
2022/09/29 09:54:25;;;;;;;9.10;5.30;;;;;;;10.99;93.39;95464.67;108343;1270;22575;-82
2022/09/29 09:57:43;;;;;;;8.80;5.00;;;;;;;11.04;92.84;95469.25;108324;1269;24231;-82
2022/09/29 10:00:16;;;;;;;4.30;2.00;;;;;;;11.13;93.04;95464.13;107824;1274;29039;-82
2022/09/29 10:02:50;;;;;;;2.10;1.50;;;;;;;11.15;92.33;95458.17;108297;1268;25199;-82
2022/09/29 10:05:27;;;;;;;2.60;1.40;;;;;;;11.19;92.41;95460.01;108283;1270;25244;-82
2022/09/29 10:07:59;;;;;;;1.80;1.50;;;;;;;11.28;92.35;95460.34;108297;1270;25242;-82
2022/09/29 10:10:30;;;;;;;1.70;1.30;;;;;;;11.30;91.68;95452.16;108266;1270;25030;-82
2022/09/29 10:13:08;;;;;;;1.80;1.30;;;;;;;11.15;90.65;95447.90;108304;1269;22913;-83
2022/09/29 10:15:44;;;;;;;2.90;1.30;;;;;;;11.25;91.78;95454.43;108251;1270;24237;-83
2022/09/29 10:18:21;;;;;;;3.40;1.20;;;;;;;11.45;91.95;95460.54;108332;1270;22523;-83
2022/09/29 10:20:52;;;;;;;2.40;1.20;;;;;;;11.52;91.21;95465.88;108253;1270;22623;-83
2022/09/29 10:23:32;;;;;;;2.60;1.20;;;;;;;11.52;90.72;95468.91;108311;1271;23123;-83
2022/09/29 10:26:13;;;;;;;1.60;1.30;;;;;;;11.52;90.56;95463.53;108286;1270;22530;-83
2022/09/29 10:28:50;;;;;;;1.60;1.20;;;;;;;11.51;90.16;95460.20;108213;1270;36348;-82
2022/09/29 10:31:25;;;;;;;2.00;1.30;;;;;;;11.54;90.60;95449.80;108341;1268;22530;-83
2022/09/29 10:34:02;;;;;;;1.40;1.10;;;;;;;11.71;90.94;95447.43;108301;1270;22584;-82
2022/09/29 10:36:48;;;;;;;1.70;1.20;;;;;;;11.87;90.75;95438.45;108353;1268;22539;-82
2022/09/29 10:39:41;;;;;;;2.10;1.20;;;;;;;12.07;90.74;95437.23;108241;1270;24699;-82
2022/09/29 10:42:24;;;;;;;1.50;1.20;;;;;;;12.12;88.94;95442.16;108282;1269;25383;-82
2022/09/29 10:45:02;;;;;;;1.80;1.40;;;;;;;11.88;87.97;95443.26;108266;1270;22638;-83
2022/09/29 10:47:34;;;;;;;2.00;1.20;;;;;;;11.71;88.03;95447.15;108289;1270;24238;-83
2022/09/29 10:50:19;;;;;;;1.50;1.00;;;;;;;11.71;88.56;95457.92;108243;1268;27816;-82
2022/09/29 10:52:54;;;;;;;1.40;1.10;;;;;;;11.83;88.96;95464.16;108393;1269;22559;-83
2022/09/29 10:55:28;;;;;;;2.30;1.30;;;;;;;11.90;88.87;95471.50;108422;1267;22677;-83
2022/09/29 10:58:16;;;;;;;3.20;1.60;;;;;;;11.91;88.48;95477.22;108478;1267;22647;-83
2022/09/29 11:00:48;;;;;;;2.70;1.40;;;;;;;11.89;88.17;95483.94;108430;1267;22847;-83
2022/09/29 11:03:28;;;;;;;3.00;1.30;;;;;;;11.82;87.46;95485.45;108349;1267;22687;-82
2022/09/29 11:06:02;;;;;;;1.20;0.80;;;;;;;11.82;87.53;95486.45;108367;1268;22503;-83
2022/09/29 11:08:33;;;;;;;2.20;1.00;;;;;;;11.80;87.00;95481.41;108311;1265;25797;-83
2022/09/29 11:11:23;;;;;;;2.80;1.40;;;;;;;11.77;86.64;95484.72;108401;1267;22816;-83
2022/09/29 11:13:58;;;;;;;2.60;1.40;;;;;;;11.71;86.39;95491.54;108313;1270;22547;-82
2022/09/29 11:16:32;;;;;;;3.50;1.10;;;;;;;11.62;86.29;95489.59;108325;1268;24330;-83
2022/09/29 11:19:07;;;;;;;2.20;1.00;;;;;;;11.58;86.52;95493.47;108396;1267;35303;-83
2022/09/29 11:22:16;;;;;;;2.00;1.00;;;;;;;11.53;86.31;95497.91;108384;1267;22723;-82
2022/09/29 11:25:09;;;;;;;1.60;0.70;;;;;;;11.45;85.85;95508.57;108390;1267;22565;-83
2022/09/29 11:27:53;;;;;;;1.40;0.50;;;;;;;11.40;86.34;95518.42;108386;1268;22686;-83
2022/09/29 11:30:28;;;;;;;0.90;0.60;;;;;;;11.38;86.54;95524.69;108307;1267;30264;-83
2022/09/29 11:33:12;;;;;;;1.40;0.60;;;;;;;11.33;86.81;95524.84;108404;1268;22650;-82
2022/09/29 11:35:56;;;;;;;1.30;0.50;;;;;;;11.34;87.08;95523.81;108427;1267;25453;-83
2022/09/29 11:38:47;;;;;;;0.70;0.60;;;;;;;11.34;87.18;95526.61;108318;1267;40634;-82
2022/09/29 11:41:37;;;;;;;1.40;0.80;;;;;;;11.35;87.57;95526.74;108352;1267;22534;-83
2022/09/29 11:44:22;;;;;;;1.10;1.00;;;;;;;11.37;87.88;95522.75;108403;1267;24374;-83
2022/09/29 11:47:07;;;;;;;3.70;1.00;;;;;;;11.35;87.86;95522.13;108443;1267;23455;-82
2022/09/29 11:50:10;;;;;;;1.20;0.90;;;;;;;11.34;88.03;95524.80;108337;1267;23406;-83
2022/09/29 11:52:54;;;;;;;2.50;0.90;;;;;;;11.36;88.39;95524.65;108381;1268;22791;-83
2022/09/29 11:55:51;;;;;;;1.10;0.90;;;;;;;11.38;88.67;95523.71;108313;1268;23685;-83
2022/09/29 11:58:33;;;;;;;3.40;0.90;;;;;;;11.41;88.51;95524.73;108348;1268;31624;-81
2022/09/29 12:01:26;;;;;;;2.00;1.00;;;;;;;11.39;88.50;95514.16;108330;1268;24219;-83
2022/09/29 12:04:11;;;;;;;1.80;1.40;;;;;;;11.36;88.52;95514.03;108296;1268;23336;-82
2022/09/29 12:07:01;;;;;;;2.10;1.60;;;;;;;11.34;88.55;95517.34;108436;1268;22568;-83
2022/09/29 12:09:56;;;;;;;2.10;1.40;;;;;;;11.37;88.99;95522.75;108321;1268;37297;-83
2022/09/29 12:12:36;;;;;;;2.50;1.20;;;;;;;11.38;89.06;95522.56;108309;1268;22747;-83
2022/09/29 12:15:19;;;;;;;3.20;1.40;;;;;;;11.42;89.36;95519.28;108386;1267;22608;-82